createdAt,value
2022-07-27T00:00:28.106Z,25.88
2022-07-27T00:02:58.631Z,34.35
2022-07-27T00:05:28.812Z,16.73
2022-07-27T00:07:58.910Z,16.48
2022-07-27T00:10:29.820Z,15.63
2022-07-27T00:13:00.093Z,16.38
2022-07-27T00:15:30.751Z,17.15
2022-07-27T00:18:02.538Z,17.17
2022-07-27T00:20:33.390Z,13.35
2022-07-27T00:23:04.385Z,11.82
2022-07-27T00:25:34.507Z,11.73
2022-07-27T00:28:05.607Z,12.90
2022-07-27T00:30:36.140Z,12.77
2022-07-27T00:33:07.589Z,12.27
2022-07-27T00:35:38.298Z,13.13
2022-07-27T00:38:09.090Z,15.80
2022-07-27T00:40:39.599Z,12.68
2022-07-27T00:43:10.132Z,15.60
2022-07-27T00:45:40.807Z,15.18
2022-07-27T00:48:11.017Z,21.25
2022-07-27T00:50:44.042Z,14.32
2022-07-27T00:53:15.904Z,14.20
2022-07-27T00:55:47.045Z,11.38
2022-07-27T00:58:17.671Z,14.23
2022-07-27T01:00:48.376Z,13.95
2022-07-27T01:03:18.696Z,11.48
2022-07-27T01:05:54.188Z,11.50
2022-07-27T01:08:24.866Z,12.02
2022-07-27T01:10:55.596Z,12.88
2022-07-27T01:13:28.001Z,11.98
2022-07-27T01:15:58.632Z,11.25
2022-07-27T01:18:33.314Z,11.63
2022-07-27T01:21:04.345Z,11.45
2022-07-27T01:23:36.922Z,11.73
2022-07-27T01:26:09.329Z,10.15
2022-07-27T01:28:40.131Z,11.02
2022-07-27T01:31:10.415Z,11.20
2022-07-27T01:33:40.604Z,11.20
2022-07-27T01:36:12.165Z,10.48
2022-07-27T01:38:42.422Z,9.25
2022-07-27T01:41:13.093Z,9.52
2022-07-27T01:43:44.021Z,10.52
2022-07-27T01:46:14.815Z,10.77
2022-07-27T01:48:46.548Z,10.98
2022-07-27T01:51:20.133Z,10.60
2022-07-27T01:53:50.278Z,10.63
2022-07-27T01:56:20.797Z,9.35
2022-07-27T01:58:51.580Z,9.25
2022-07-27T02:01:22.248Z,9.98
2022-07-27T02:03:52.763Z,10.25
2022-07-27T02:06:23.756Z,9.60
2022-07-27T02:08:54.905Z,8.95
2022-07-27T02:11:45.254Z,8.77
2022-07-27T02:14:15.432Z,8.13
2022-07-27T02:16:46.011Z,8.75
2022-07-27T02:19:17.291Z,9.48
2022-07-27T02:21:49.286Z,26.38
2022-07-27T02:24:20.118Z,14.45
2022-07-27T02:26:50.530Z,8.90
2022-07-27T02:29:21.522Z,8.82
2022-07-27T02:31:51.974Z,9.18
2022-07-27T02:34:22.783Z,10.07
2022-07-27T02:36:52.918Z,10.70
2022-07-27T02:39:23.536Z,9.82
2022-07-27T02:41:54.326Z,9.48
2022-07-27T02:44:24.589Z,8.80
2022-07-27T02:46:55.030Z,8.95
2022-07-27T02:49:26.341Z,10.00
2022-07-27T02:51:56.758Z,17.38
2022-07-27T02:54:27.702Z,13.02
2022-07-27T02:56:59.085Z,7.93
2022-07-27T02:59:29.720Z,8.88
2022-07-27T03:02:00.227Z,8.75
2022-07-27T03:04:30.534Z,7.70
2022-07-27T03:07:01.137Z,9.02
2022-07-27T03:09:33.085Z,8.95
2022-07-27T03:12:04.112Z,7.70
2022-07-27T03:14:34.641Z,8.13
2022-07-27T03:17:05.060Z,8.65
2022-07-27T03:19:35.810Z,8.18
2022-07-27T03:22:06.161Z,8.65
2022-07-27T03:24:36.542Z,8.60
2022-07-27T03:27:07.425Z,8.55
2022-07-27T03:29:39.010Z,8.73
2022-07-27T03:32:09.660Z,8.80
2022-07-27T03:34:40.193Z,9.07
2022-07-27T03:37:11.124Z,8.73
2022-07-27T03:39:41.619Z,9.30
2022-07-27T03:42:11.958Z,9.88
2022-07-27T03:44:42.242Z,9.57
2022-07-27T03:47:12.521Z,9.90
2022-07-27T03:49:43.017Z,9.95
2022-07-27T03:52:17.525Z,9.65
2022-07-27T03:54:48.858Z,10.25
2022-07-27T03:57:19.275Z,9.77
2022-07-27T03:59:49.371Z,9.93
2022-07-27T04:02:19.561Z,10.45
2022-07-27T04:04:50.567Z,9.90
2022-07-27T04:07:21.027Z,10.10
2022-07-27T04:09:51.534Z,10.55
2022-07-27T04:12:21.852Z,9.20
2022-07-27T04:14:52.261Z,9.10
2022-07-27T04:17:54.445Z,8.88
2022-07-27T04:20:13.132Z,9.02
2022-07-27T04:22:45.165Z,9.23
2022-07-27T04:25:15.652Z,9.80
2022-07-27T04:27:45.850Z,9.13
2022-07-27T04:30:16.331Z,10.07
2022-07-27T04:32:46.507Z,9.27
2022-07-27T04:35:16.597Z,9.65
2022-07-27T04:37:58.971Z,9.23
2022-07-27T04:40:35.175Z,8.70
2022-07-27T04:43:07.793Z,8.82
2022-07-27T04:45:38.443Z,8.82
2022-07-27T04:48:12.084Z,8.15
2022-07-27T04:50:46.031Z,8.93
2022-07-27T04:53:17.835Z,8.45
2022-07-27T04:55:49.116Z,9.20
2022-07-27T04:58:19.702Z,9.45
2022-07-27T05:00:50.448Z,9.10
2022-07-27T05:03:20.653Z,8.20
2022-07-27T05:05:51.131Z,8.48
2022-07-27T05:08:22.212Z,8.73
2022-07-27T05:10:52.379Z,9.32
2022-07-27T05:13:23.015Z,8.80
2022-07-27T05:15:54.992Z,8.93
2022-07-27T05:18:27.278Z,8.93
2022-07-27T05:20:57.806Z,8.18
2022-07-27T05:23:28.301Z,9.32
2022-07-27T05:25:58.919Z,9.60
2022-07-27T05:28:29.412Z,8.88
2022-07-27T05:31:00.427Z,9.30
2022-07-27T05:33:30.641Z,9.82
2022-07-27T05:36:00.872Z,9.20
2022-07-27T05:38:33.403Z,9.85
2022-07-27T05:41:03.843Z,9.27
2022-07-27T05:43:34.728Z,9.00
2022-07-27T05:46:04.990Z,9.40
2022-07-27T05:48:35.515Z,9.50
2022-07-27T05:51:05.715Z,10.45
2022-07-27T05:53:37.173Z,9.60
2022-07-27T05:56:09.370Z,8.68
2022-07-27T05:58:39.798Z,8.40
2022-07-27T06:01:10.641Z,8.48
2022-07-27T06:03:41.096Z,11.13
2022-07-27T06:06:30.912Z,10.18
2022-07-27T06:09:03.497Z,8.73
2022-07-27T06:11:36.037Z,9.68
2022-07-27T06:14:06.853Z,9.27
2022-07-27T06:16:37.808Z,9.30
2022-07-27T06:19:08.066Z,8.98
2022-07-27T06:21:38.509Z,8.40
2022-07-27T06:24:09.554Z,8.85
2022-07-27T06:26:39.975Z,8.63
2022-07-27T06:29:10.940Z,8.75
2022-07-27T06:31:42.753Z,8.50
2022-07-27T06:34:14.909Z,9.07
2022-07-27T06:36:46.640Z,8.93
2022-07-27T06:39:16.959Z,8.23
2022-07-27T06:41:47.299Z,8.70
2022-07-27T06:44:17.715Z,9.25
2022-07-27T06:46:48.359Z,8.73
2022-07-27T06:49:19.192Z,8.90
2022-07-27T06:51:49.883Z,8.40
2022-07-27T06:54:20.829Z,7.80
2022-07-27T06:56:51.162Z,8.27
2022-07-27T06:59:21.607Z,8.80
2022-07-27T07:01:52.026Z,9.15
2022-07-27T07:04:23.225Z,7.93
2022-07-27T07:06:55.362Z,8.60
2022-07-27T07:09:25.544Z,9.13
2022-07-27T07:11:55.702Z,9.93
2022-07-27T07:14:27.690Z,14.60
2022-07-27T07:16:58.119Z,10.05
2022-07-27T07:19:28.244Z,8.50
2022-07-27T07:21:58.553Z,9.15
2022-07-27T07:24:29.948Z,8.73
2022-07-27T07:27:00.721Z,8.48
2022-07-27T07:29:30.988Z,8.65
2022-07-27T07:32:01.402Z,7.72
2022-07-27T07:34:32.173Z,8.63
2022-07-27T07:37:02.854Z,7.47
2022-07-27T07:39:33.328Z,8.23
2022-07-27T07:42:03.773Z,7.97
2022-07-27T07:44:35.295Z,8.00
2022-07-27T07:47:05.671Z,8.10
2022-07-27T07:49:38.989Z,7.65
2022-07-27T07:52:10.599Z,13.90
2022-07-27T07:54:40.672Z,14.63
2022-07-27T07:57:11.068Z,15.82
2022-07-27T07:59:42.151Z,16.52
2022-07-27T08:02:12.572Z,15.45
2022-07-27T08:04:42.924Z,7.28
2022-07-27T08:07:13.895Z,7.05
2022-07-27T08:09:46.063Z,6.63
2022-07-27T08:12:16.616Z,6.80
2022-07-27T08:14:46.819Z,6.82
2022-07-27T08:17:18.629Z,7.53
2022-07-27T08:19:48.811Z,7.28
2022-07-27T08:22:19.596Z,7.60
2022-07-27T08:24:50.242Z,8.77
2022-07-27T08:27:20.683Z,7.60
2022-07-27T08:29:51.784Z,8.05
2022-07-27T08:32:22.955Z,8.43
2022-07-27T08:34:59.536Z,7.50
2022-07-27T08:37:29.702Z,8.70
2022-07-27T08:42:51.459Z,8.52
2022-07-27T08:45:25.829Z,13.23
2022-07-27T08:47:56.095Z,12.40
2022-07-27T08:50:26.826Z,8.02
2022-07-27T08:52:58.617Z,8.25
2022-07-27T08:55:30.158Z,8.68
2022-07-27T08:58:03.005Z,9.43
2022-07-27T09:00:37.504Z,9.25
2022-07-27T09:03:08.159Z,8.88
2022-07-27T09:05:44.987Z,8.57
2022-07-27T09:08:16.553Z,7.97
2022-07-27T09:10:47.091Z,8.85
2022-07-27T09:13:37.447Z,8.30
2022-07-27T09:16:19.222Z,8.85
2022-07-27T09:18:51.014Z,8.13
2022-07-27T09:21:22.924Z,7.90
2022-07-27T09:23:54.892Z,8.07
2022-07-27T09:26:32.426Z,8.55
2022-07-27T09:29:05.792Z,7.95
2022-07-27T09:31:43.299Z,8.50
2022-07-27T09:34:14.383Z,8.05
2022-07-27T09:37:09.219Z,8.48
2022-07-27T09:39:40.770Z,8.50
2022-07-27T09:43:05.544Z,8.32
2022-07-27T09:45:32.452Z,8.00
2022-07-27T09:48:11.002Z,9.02
2022-07-27T09:50:58.370Z,9.65
2022-07-27T09:53:44.316Z,8.68
2022-07-27T09:56:17.770Z,8.75
2022-07-27T09:58:50.757Z,9.50
2022-07-27T10:01:23.304Z,8.68
2022-07-27T10:03:54.930Z,9.18
2022-07-27T10:06:25.849Z,8.80
2022-07-27T10:08:57.249Z,8.32
2022-07-27T10:11:28.704Z,8.95
2022-07-27T10:14:01.699Z,9.05
2022-07-27T10:16:34.165Z,10.90
2022-07-27T10:19:24.356Z,12.15
2022-07-27T10:21:54.437Z,11.25
2022-07-27T10:24:35.418Z,12.30
2022-07-27T10:27:25.066Z,12.60
2022-07-27T10:29:56.007Z,13.25
2022-07-27T10:32:34.230Z,12.45
2022-07-27T10:35:04.360Z,14.55
2022-07-27T10:37:36.440Z,14.95
2022-07-27T10:40:28.827Z,13.90
2022-07-27T10:43:13.159Z,13.85
2022-07-27T10:46:00.220Z,12.75
2022-07-27T10:48:44.197Z,13.27
2022-07-27T10:51:18.447Z,13.05
2022-07-27T10:54:22.530Z,13.35
2022-07-27T10:56:50.123Z,13.15
2022-07-27T11:02:41.476Z,16.55
2022-07-27T11:05:53.438Z,13.77
2022-07-27T11:08:35.494Z,13.32
2022-07-27T11:10:54.738Z,19.23
2022-07-27T11:13:26.308Z,15.02
2022-07-27T11:16:23.494Z,16.67
2022-07-27T11:18:57.459Z,15.18
2022-07-27T11:21:29.203Z,15.55
2022-07-27T11:24:08.072Z,16.67
2022-07-27T11:26:43.421Z,15.55
2022-07-27T11:29:14.319Z,14.60
2022-07-27T11:31:55.454Z,13.95
2022-07-27T11:34:30.511Z,12.32
2022-07-27T11:37:03.509Z,11.40
2022-07-27T11:39:59.989Z,12.77
2022-07-27T11:42:25.291Z,14.70
2022-07-27T11:44:55.407Z,17.05
2022-07-27T11:47:27.842Z,21.85
2022-07-27T11:50:07.628Z,19.48
2022-07-27T11:52:37.922Z,17.00
2022-07-27T11:55:09.352Z,13.10
2022-07-27T11:57:44.009Z,11.95
2022-07-27T12:00:14.787Z,12.77
2022-07-27T12:02:51.833Z,12.50
2022-07-27T12:05:22.358Z,12.90
2022-07-27T12:07:53.128Z,14.52
2022-07-27T12:10:24.493Z,14.02
2022-07-27T12:12:55.450Z,14.40
2022-07-27T12:15:45.194Z,13.73
2022-07-27T12:18:16.230Z,14.65
2022-07-27T12:20:50.043Z,14.63
2022-07-27T12:23:20.425Z,15.32
2022-07-27T12:25:50.812Z,15.50
2022-07-27T12:28:27.266Z,16.02
2022-07-27T12:30:57.650Z,17.52
2022-07-27T12:33:30.348Z,16.15
2022-07-27T12:36:01.562Z,16.75
2022-07-27T12:38:45.914Z,21.73
2022-07-27T12:41:39.022Z,34.60
2022-07-27T12:44:11.492Z,41.63
2022-07-27T12:47:25.300Z,26.80
2022-07-27T12:50:17.385Z,19.08
2022-07-27T12:52:50.219Z,18.83
2022-07-27T12:55:21.712Z,33.20
2022-07-27T12:57:56.775Z,31.85
2022-07-27T13:00:33.880Z,32.85
2022-07-27T13:03:05.454Z,31.05
2022-07-27T13:05:36.619Z,26.58
2022-07-27T13:08:07.748Z,28.25
2022-07-27T13:10:41.283Z,28.08
2022-07-27T13:13:11.826Z,26.00
2022-07-27T13:15:41.960Z,25.42
2022-07-27T13:18:12.729Z,118.10
2022-07-27T13:20:43.898Z,31.92
2022-07-27T13:23:14.046Z,26.90
2022-07-27T13:25:44.577Z,25.50
2022-07-27T13:28:15.024Z,29.25
2022-07-27T13:30:45.442Z,30.33
2022-07-27T13:33:16.138Z,33.05
2022-07-27T13:35:47.414Z,29.67
2022-07-27T13:38:30.002Z,30.65
2022-07-27T13:41:00.175Z,29.35
2022-07-27T13:43:30.553Z,27.25
2022-07-27T13:46:00.752Z,29.35
2022-07-27T13:48:31.584Z,29.17
2022-07-27T13:51:02.173Z,29.83
2022-07-27T13:53:32.960Z,29.52
2022-07-27T13:56:04.546Z,29.55
2022-07-27T13:58:34.568Z,28.52
2022-07-27T14:01:07.714Z,30.73
2022-07-27T14:03:38.321Z,30.00
2022-07-27T14:06:09.256Z,29.58
2022-07-27T14:08:40.634Z,29.10
2022-07-27T14:11:12.181Z,28.45
2022-07-27T14:13:43.147Z,28.00
2022-07-27T14:16:14.415Z,29.52
2022-07-27T14:18:45.190Z,28.50
2022-07-27T14:21:16.234Z,26.67
2022-07-27T14:23:47.088Z,25.70
2022-07-27T14:26:17.310Z,24.48
2022-07-27T14:28:48.945Z,62.03
2022-07-27T14:31:18.980Z,24.45
2022-07-27T14:33:49.305Z,22.92
2022-07-27T14:36:19.800Z,22.15
2022-07-27T14:38:50.406Z,21.52
2022-07-27T14:41:20.839Z,20.45
2022-07-27T14:43:50.943Z,22.27
2022-07-27T14:46:20.804Z,23.40
2022-07-27T14:49:07.172Z,22.95
2022-07-27T14:51:38.361Z,17.33
2022-07-27T14:54:09.271Z,17.73
2022-07-27T14:56:40.004Z,17.67
2022-07-27T14:59:10.722Z,15.80
2022-07-27T15:01:42.326Z,16.40
2022-07-27T15:04:12.675Z,16.33
2022-07-27T15:06:43.078Z,18.00
2022-07-27T15:09:13.995Z,15.80
2022-07-27T15:11:44.602Z,17.75
2022-07-27T15:14:15.657Z,16.80
2022-07-27T15:16:46.429Z,17.63
2022-07-27T15:19:18.078Z,15.43
2022-07-27T15:21:48.783Z,16.08
2022-07-27T15:24:19.129Z,17.75
2022-07-27T15:26:49.185Z,17.15
2022-07-27T15:29:19.490Z,17.13
2022-07-27T15:31:51.205Z,15.32
2022-07-27T15:34:21.955Z,14.25
2022-07-27T15:36:52.568Z,13.25
2022-07-27T15:39:24.522Z,13.90
2022-07-27T15:41:54.610Z,13.95
2022-07-27T15:44:24.866Z,12.98
2022-07-27T15:46:55.867Z,12.43
2022-07-27T15:49:26.707Z,13.55
2022-07-27T15:51:57.193Z,14.30
2022-07-27T15:54:31.502Z,14.95
2022-07-27T15:57:04.203Z,15.45
2022-07-27T15:59:34.280Z,14.35
2022-07-27T16:02:04.367Z,32.75
2022-07-27T16:04:35.180Z,16.13
2022-07-27T16:07:05.299Z,15.38
2022-07-27T16:09:35.934Z,15.07
2022-07-27T16:12:06.857Z,15.93
2022-07-27T16:14:38.042Z,16.70
2022-07-27T16:17:08.821Z,15.10
2022-07-27T16:19:39.448Z,16.38
2022-07-27T16:22:09.869Z,16.13
2022-07-27T16:24:40.796Z,15.98
2022-07-27T16:27:11.360Z,15.88
2022-07-27T16:29:41.481Z,17.30
2022-07-27T16:32:13.681Z,16.65
2022-07-27T16:34:43.763Z,18.25
2022-07-27T16:37:14.124Z,18.20
2022-07-27T16:39:44.404Z,16.95
2022-07-27T16:42:14.752Z,16.65
2022-07-27T16:44:44.800Z,17.67
2022-07-27T16:47:15.813Z,17.75
2022-07-27T16:49:46.986Z,19.98
2022-07-27T16:52:17.496Z,20.95
2022-07-27T16:54:47.818Z,20.83
2022-07-27T16:57:18.033Z,21.15
2022-07-27T16:59:48.132Z,21.73
2022-07-27T17:02:18.699Z,23.17
2022-07-27T17:04:49.145Z,22.88
2022-07-27T17:07:19.271Z,24.73
2022-07-27T17:09:49.044Z,23.83
2022-07-27T17:12:19.579Z,22.10
2022-07-27T17:14:53.936Z,23.60
2022-07-27T17:17:24.821Z,23.10
2022-07-27T17:19:55.467Z,23.77
2022-07-27T17:22:26.030Z,23.08
2022-07-27T17:24:56.443Z,21.73
2022-07-27T17:27:26.667Z,24.50
2022-07-27T17:29:56.734Z,24.23
2022-07-27T17:32:26.910Z,22.40
2022-07-27T17:34:57.538Z,23.88
2022-07-27T17:37:38.579Z,23.90
2022-07-27T17:40:18.062Z,23.33
2022-07-27T17:42:48.244Z,25.50
2022-07-27T17:45:18.640Z,24.38
2022-07-27T17:47:48.874Z,23.83
2022-07-27T17:50:19.253Z,24.85
2022-07-27T17:52:49.713Z,24.95
2022-07-27T17:55:20.137Z,22.15
2022-07-27T17:57:50.608Z,23.83
2022-07-27T18:00:21.066Z,25.20
2022-07-27T18:02:51.884Z,24.83
2022-07-27T18:05:22.264Z,23.20
2022-07-27T18:07:54.631Z,23.45
2022-07-27T18:10:25.248Z,21.77
2022-07-27T18:12:55.789Z,22.52
2022-07-27T18:15:46.346Z,20.80
2022-07-27T18:18:21.062Z,19.52
2022-07-27T18:20:53.702Z,20.73
2022-07-27T18:23:25.021Z,20.25
2022-07-27T18:25:55.427Z,20.25
2022-07-27T18:28:25.817Z,20.63
2022-07-27T18:30:56.350Z,22.77
2022-07-27T18:33:27.802Z,20.48
2022-07-27T18:36:07.772Z,20.75
2022-07-27T18:38:37.916Z,20.95
2022-07-27T18:41:08.317Z,21.75
2022-07-27T18:43:38.625Z,20.48
2022-07-27T18:46:08.753Z,21.63
2022-07-27T18:48:39.102Z,24.10
2022-07-27T18:51:09.205Z,25.13
2022-07-27T18:53:39.404Z,24.40
2022-07-27T18:56:10.006Z,22.63
2022-07-27T18:58:41.995Z,20.08
2022-07-27T19:01:12.676Z,20.73
2022-07-27T19:03:43.735Z,18.48
2022-07-27T19:06:17.854Z,20.15
2022-07-27T19:08:49.840Z,21.15
2022-07-27T19:11:20.157Z,22.35
2022-07-27T19:13:50.805Z,22.42
2022-07-27T19:16:21.648Z,22.95
2022-07-27T19:18:52.016Z,21.80
2022-07-27T19:21:22.556Z,21.10
2022-07-27T19:23:53.286Z,21.98
2022-07-27T19:26:23.738Z,24.75
2022-07-27T19:28:54.201Z,23.90
2022-07-27T19:31:26.575Z,24.33
2022-07-27T19:33:57.635Z,22.48
2022-07-27T19:36:27.699Z,23.05
2022-07-27T19:38:58.491Z,21.55
2022-07-27T19:41:28.670Z,22.73
2022-07-27T19:43:58.962Z,23.25
2022-07-27T19:46:29.082Z,21.70
2022-07-27T19:48:59.837Z,19.70
2022-07-27T19:51:30.280Z,24.20
2022-07-27T19:54:00.875Z,24.17
2022-07-27T19:56:36.860Z,23.10
2022-07-27T19:59:08.063Z,23.23
2022-07-27T20:01:38.747Z,23.05
2022-07-27T20:04:10.855Z,24.15
2022-07-27T20:06:41.033Z,25.98
2022-07-27T20:09:11.400Z,26.63
2022-07-27T20:11:41.821Z,28.52
2022-07-27T20:14:12.707Z,27.67
2022-07-27T20:16:43.443Z,28.98
2022-07-27T20:19:14.228Z,29.20
2022-07-27T20:21:46.131Z,28.27
2022-07-27T20:24:16.338Z,27.27
2022-07-27T20:26:49.149Z,23.67
2022-07-27T20:29:20.244Z,23.75
2022-07-27T20:31:51.630Z,26.95
2022-07-27T20:34:22.306Z,28.05
2022-07-27T20:36:52.573Z,29.15
2022-07-27T20:39:23.191Z,25.35
2022-07-27T20:41:53.951Z,24.77
2022-07-27T20:44:24.111Z,23.30
2022-07-27T20:46:54.197Z,23.48
2022-07-27T20:49:24.604Z,26.60
2022-07-27T20:51:55.267Z,24.70
2022-07-27T20:54:27.269Z,23.95
2022-07-27T20:57:03.074Z,26.35
2022-07-27T20:59:34.620Z,26.92
2022-07-27T21:02:04.890Z,27.15
2022-07-27T21:04:35.799Z,26.67
2022-07-27T21:07:06.296Z,28.08
2022-07-27T21:09:37.425Z,28.50
2022-07-27T21:12:10.467Z,29.48
2022-07-27T21:14:40.892Z,31.42
2022-07-27T21:17:11.695Z,31.17
2022-07-27T21:19:42.236Z,30.88
2022-07-27T21:22:12.399Z,30.40
2022-07-27T21:24:42.340Z,30.15
2022-07-27T21:27:14.965Z,27.00
2022-07-27T21:29:45.593Z,28.30
2022-07-27T21:32:16.169Z,24.92
2022-07-27T21:34:47.070Z,26.58
2022-07-27T21:37:17.818Z,27.58
2022-07-27T21:39:48.120Z,26.77
2022-07-27T21:42:18.536Z,27.27
2022-07-27T21:44:48.711Z,28.40
2022-07-27T21:47:19.434Z,27.15
2022-07-27T21:49:50.047Z,27.88
2022-07-27T21:52:20.513Z,25.75
2022-07-27T21:54:51.449Z,28.25
2022-07-27T21:57:21.929Z,27.35
2022-07-27T21:59:52.603Z,25.92
2022-07-27T22:02:22.751Z,28.73
2022-07-27T22:04:58.392Z,27.67
2022-07-27T22:07:28.939Z,29.73
2022-07-27T22:09:59.422Z,29.48
2022-07-27T22:12:30.892Z,30.58
2022-07-27T22:15:01.284Z,30.90
2022-07-27T22:17:32.076Z,30.92
2022-07-27T22:20:02.244Z,31.75
2022-07-27T22:22:32.325Z,31.77
2022-07-27T22:25:03.838Z,28.02
2022-07-27T22:27:34.705Z,27.42
2022-07-27T22:30:05.487Z,29.65
2022-07-27T22:32:35.987Z,30.13
2022-07-27T22:35:06.217Z,29.08
2022-07-27T22:37:36.781Z,32.30
2022-07-27T22:40:07.360Z,34.03
2022-07-27T22:42:37.494Z,34.08
2022-07-27T22:45:08.243Z,34.72
2022-07-27T22:47:39.742Z,33.22
2022-07-27T22:50:13.452Z,33.33
2022-07-27T22:52:48.939Z,31.10
2022-07-27T22:55:20.328Z,29.90
2022-07-27T22:57:51.387Z,34.30
2022-07-27T23:00:22.776Z,33.90
2022-07-27T23:02:52.872Z,30.70
2022-07-27T23:05:23.033Z,30.48
2022-07-27T23:07:53.514Z,31.10
2022-07-27T23:10:43.217Z,30.58
2022-07-27T23:13:14.311Z,38.05
2022-07-27T23:15:45.180Z,39.55
2022-07-27T23:18:16.242Z,37.70
2022-07-27T23:20:46.707Z,39.28
2022-07-27T23:23:17.110Z,33.03
2022-07-27T23:25:47.890Z,32.47
2022-07-27T23:28:19.377Z,32.90
2022-07-27T23:30:49.501Z,34.45
2022-07-27T23:33:20.151Z,35.38
2022-07-27T23:35:50.703Z,33.40
2022-07-27T23:38:21.167Z,33.25
2022-07-27T23:40:52.255Z,35.85
2022-07-27T23:43:22.300Z,37.55
2022-07-27T23:45:52.765Z,46.97
2022-07-27T23:48:25.054Z,37.47
2022-07-27T23:50:56.105Z,37.97
2022-07-27T23:53:26.827Z,39.72
2022-07-27T23:55:57.190Z,36.88
2022-07-27T23:58:27.663Z,35.75
